PWSweather.com
Personal Weather Stations
Station Observations
KB2SBX
Sugarloaf, Sugarloaf, PA 18249

SugarloafSugarloaf, PA 18249

Lat: 41.0126685, Lon: -76.1082041

Elevation: 1030

Station Type: WS-2080

http://sugarloafpaweather.webng.com/weather.shtml

Latest ConditionsUpdated 4:10:00 PM EDT Monday, Aug 31, 2015
Currently Today's Max Today's Min Today's Average
Temperature 86.0°F30.0°C 86.0°F30.0°C 66.4°F19.1°C 80.1°F26.7°C
Dew Point 66.4°F19.1°C 71.1°F21.7°C 55.4°F13.0°C 67.1°F19.5°C
Winds 0.7 mph NW1.1 kmh NW 5.4 mph NE8.7 kmh NE - 1.6 mph 2.6 kmh
Wind Gusts 1.6 mph2.6 kmh 7.6 mph12.2 kmh - -
Humidity 52% 84% 52% 65%
Pressure 29.89 in1012.2 mb 29.95 in1014.2 mb 29.84 in1010.5 mb -
Precipitation - 0.37 in9.4 mm - -
Hour Temp Dew Point Humidity Winds Wind Gusts Pressure Precip Precip Rate Daily Precip Total
04:10 PM 86.0°F30.0°C 66.4°F19.1°C 52% 0.7 mph NW1.1 kmh NW 1.6 mph2.6 kmh 29.89 in1012.2 mb 0.00 in0.0 mm 0.00 in0.0 mm 0.37 in9.4 mm
04:00 PM 86.0°F30.0°C 66.4°F19.1°C 52% 0.7 mph NW1.1 kmh NW 1.6 mph2.6 kmh 29.89 in1012.2 mb 0.00 in0.0 mm 0.00 in0.0 mm 0.37 in9.4 mm
03:50 PM 86.0°F30.0°C 66.4°F19.1°C 52% 0.7 mph NW1.1 kmh NW 1.6 mph2.6 kmh 29.89 in1012.2 mb 0.00 in0.0 mm 0.00 in0.0 mm 0.37 in9.4 mm
03:40 PM 86.0°F30.0°C 66.4°F19.1°C 52% 0.7 mph NW1.1 kmh NW 1.6 mph2.6 kmh 29.89 in1012.2 mb 0.00 in0.0 mm 0.00 in0.0 mm 0.37 in9.4 mm
03:30 PM 86.0°F30.0°C 66.4°F19.1°C 52% 0.7 mph NW1.1 kmh NW 1.6 mph2.6 kmh 29.89 in1012.2 mb 0.00 in0.0 mm 0.00 in0.0 mm 0.37 in9.4 mm
03:20 PM 86.0°F30.0°C 66.4°F19.1°C 52% 0.7 mph NW1.1 kmh NW 1.6 mph2.6 kmh 29.89 in1012.2 mb 0.00 in0.0 mm 0.00 in0.0 mm 0.37 in9.4 mm
03:10 PM 86.0°F30.0°C 66.4°F19.1°C 52% 0.7 mph ESE1.1 kmh ESE 6.0 mph9.7 kmh 29.89 in1012.2 mb 0.00 in0.0 mm 0.00 in0.0 mm 0.37 in9.4 mm
03:00 PM 82.9°F28.3°C 70.0°F21.1°C 65% 0.7 mph S1.1 kmh S 1.6 mph2.6 kmh 29.95 in1014.2 mb 0.00 in0.0 mm 0.00 in0.0 mm 0.37 in9.4 mm
02:50 PM 82.9°F28.3°C 70.0°F21.1°C 65% 0.7 mph S1.1 kmh S 1.6 mph2.6 kmh 29.95 in1014.2 mb 1.14 in29.0 mm 4.56 in115.8 mm 0.37 in9.4 mm
02:40 PM 82.9°F28.3°C 70.0°F21.1°C 65% 0.7 mph S1.1 kmh S 1.6 mph2.6 kmh 29.95 in1014.2 mb 0.38 in9.7 mm 2.28 in57.9 mm 0.37 in9.4 mm
02:30 PM 82.9°F28.3°C 70.0°F21.1°C 65% 0.7 mph S1.1 kmh S 1.6 mph2.6 kmh 29.95 in1014.2 mb 0.00 in0.0 mm 0.00 in0.0 mm 0.37 in9.4 mm
02:20 PM 85.6°F29.8°C 66.6°F19.2°C 53% 5.4 mph NE8.7 kmh NE 6.9 mph11.1 kmh 29.92 in1013.2 mb 0.38 in9.7 mm 2.28 in57.9 mm 0.37 in9.4 mm
02:10 PM 85.6°F29.8°C 66.6°F19.2°C 53% 5.4 mph SSE8.7 kmh SSE 7.6 mph12.2 kmh 29.92 in1013.2 mb 0.00 in0.0 mm 0.00 in0.0 mm 0.37 in9.4 mm
02:00 PM 85.5°F29.7°C 68.0°F20.0°C 56% 4.5 mph E7.2 kmh E 7.6 mph12.2 kmh 29.92 in1013.2 mb 0.00 in0.0 mm 0.00 in0.0 mm 0.37 in9.4 mm
01:48 PM 66.7°F19.3°C 59.7°F15.4°C 78% 3.1 mph NNE5.0 kmh NNE 6.9 mph11.1 kmh 29.84 in1010.5 mb 0.00 in0.0 mm 0.00 in0.0 mm 0.37 in9.4 mm
01:47 PM 66.7°F19.3°C 60.0°F15.6°C 79% 2.2 mph ESE3.5 kmh ESE 4.5 mph7.2 kmh 29.84 in1010.5 mb 0.00 in0.0 mm 0.00 in0.0 mm 0.37 in9.4 mm
01:46 PM 66.4°F19.1°C 60.0°F15.6°C 80% 2.2 mph N3.5 kmh N 4.5 mph7.2 kmh 29.84 in1010.5 mb 0.00 in0.0 mm 0.00 in0.0 mm 0.37 in9.4 mm
01:45 PM 66.4°F19.1°C 60.0°F15.6°C 80% 2.2 mph SE3.5 kmh SE 4.5 mph7.2 kmh 29.84 in1010.5 mb 0.00 in0.0 mm 0.00 in0.0 mm 0.37 in9.4 mm
01:40 PM 70.9°F21.6°C 55.4°F13.0°C 58% Calm Calm 4.5 mph7.2 kmh 29.92 in1013.2 mb 0.00 in0.0 mm 0.00 in0.0 mm 0.76 in19.3 mm
01:35 PM 84.6°F29.2°C 68.7°F20.4°C 59% 3.1 mph SSE5.0 kmh SSE 4.5 mph7.2 kmh 29.92 in1013.2 mb 0.00 in0.0 mm 0.00 in0.0 mm 0.76 in19.3 mm
01:30 PM 70.9°F21.6°C 55.4°F13.0°C 58% Calm Calm 0.7 mph1.1 kmh 29.92 in1013.2 mb 0.00 in0.0 mm 0.00 in0.0 mm 0.38 in9.7 mm
01:20 PM 70.9°F21.6°C 55.4°F13.0°C 58% Calm Calm 3.1 mph5.0 kmh 29.92 in1013.2 mb 0.00 in0.0 mm 0.00 in0.0 mm 0.38 in9.7 mm
01:10 PM 83.8°F28.8°C 70.4°F21.3°C 64% 1.6 mph WNW2.6 kmh WNW 3.1 mph5.0 kmh 29.92 in1013.2 mb 0.00 in0.0 mm 0.00 in0.0 mm 0.38 in9.7 mm
01:00 PM 83.8°F28.8°C 70.4°F21.3°C 64% 1.6 mph WNW2.6 kmh WNW 3.1 mph5.0 kmh 29.92 in1013.2 mb 0.00 in0.0 mm 0.00 in0.0 mm 0.38 in9.7 mm
12:50 PM 83.8°F28.8°C 70.4°F21.3°C 64% 1.6 mph WNW2.6 kmh WNW 3.1 mph5.0 kmh 29.92 in1013.2 mb 0.00 in0.0 mm 0.00 in0.0 mm 0.38 in9.7 mm
12:40 PM 83.8°F28.8°C 70.4°F21.3°C 64% 1.6 mph WNW2.6 kmh WNW 3.1 mph5.0 kmh 29.92 in1013.2 mb 0.00 in0.0 mm 0.00 in0.0 mm 0.38 in9.7 mm
12:30 PM 83.8°F28.8°C 70.4°F21.3°C 64% 1.6 mph WNW2.6 kmh WNW 3.1 mph5.0 kmh 29.92 in1013.2 mb 0.00 in0.0 mm 0.00 in0.0 mm 0.38 in9.7 mm
12:20 PM 81.7°F27.6°C 70.1°F21.2°C 68% 1.6 mph NW2.6 kmh NW 2.2 mph3.5 kmh 29.92 in1013.2 mb 0.00 in0.0 mm 0.00 in0.0 mm 0.38 in9.7 mm
12:10 PM 81.7°F27.6°C 70.1°F21.2°C 68% 1.6 mph NW2.6 kmh NW 2.2 mph3.5 kmh 29.92 in1013.2 mb 0.00 in0.0 mm 0.00 in0.0 mm 0.38 in9.7 mm
12:00 PM 81.7°F27.6°C 70.1°F21.2°C 68% 1.6 mph NW2.6 kmh NW 2.2 mph3.5 kmh 29.92 in1013.2 mb 0.00 in0.0 mm 0.00 in0.0 mm 0.38 in9.7 mm
11:50 AM 81.7°F27.6°C 70.1°F21.2°C 68% 1.6 mph NW2.6 kmh NW 3.8 mph6.1 kmh 29.92 in1013.2 mb 0.00 in0.0 mm 0.00 in0.0 mm 0.38 in9.7 mm
11:40 AM 79.3°F26.3°C 69.2°F20.7°C 71% 2.2 mph NW3.5 kmh NW 3.8 mph6.1 kmh 29.93 in1013.5 mb 0.00 in0.0 mm 0.00 in0.0 mm 0.38 in9.7 mm
11:30 AM 79.3°F26.3°C 69.2°F20.7°C 71% 2.2 mph NW3.5 kmh NW 3.8 mph6.1 kmh 29.93 in1013.5 mb 0.00 in0.0 mm 0.00 in0.0 mm 0.38 in9.7 mm
11:20 AM 79.3°F26.3°C 69.2°F20.7°C 71% 2.2 mph NW3.5 kmh NW 3.8 mph6.1 kmh 29.93 in1013.5 mb 0.00 in0.0 mm 0.00 in0.0 mm 0.38 in9.7 mm
11:10 AM 79.3°F26.3°C 69.2°F20.7°C 71% 2.2 mph NW3.5 kmh NW 3.8 mph6.1 kmh 29.93 in1013.5 mb 0.00 in0.0 mm 0.00 in0.0 mm 0.38 in9.7 mm
11:00 AM 79.3°F26.3°C 69.2°F20.7°C 71% 2.2 mph NW3.5 kmh NW 4.5 mph7.2 kmh 29.93 in1013.5 mb 0.00 in0.0 mm 0.00 in0.0 mm 0.38 in9.7 mm
10:40 AM 76.3°F24.6°C 71.1°F21.7°C 84% 0.7 mph SE1.1 kmh SE 1.6 mph2.6 kmh 29.92 in1013.2 mb 0.00 in0.0 mm 0.00 in0.0 mm 0.38 in9.7 mm
10:30 AM 76.3°F24.6°C 71.1°F21.7°C 84% 0.7 mph SE1.1 kmh SE 1.6 mph2.6 kmh 29.92 in1013.2 mb 0.00 in0.0 mm 0.00 in0.0 mm 0.38 in9.7 mm
10:20 AM 76.3°F24.6°C 71.1°F21.7°C 84% 0.7 mph SE1.1 kmh SE 1.6 mph2.6 kmh 29.92 in1013.2 mb 0.00 in0.0 mm 0.00 in0.0 mm 0.38 in9.7 mm
10:10 AM 76.3°F24.6°C 71.1°F21.7°C 84% 0.7 mph SE1.1 kmh SE 1.6 mph2.6 kmh 29.92 in1013.2 mb 0.00 in0.0 mm 0.00 in0.0 mm 0.38 in9.7 mm